createdAt,value
2022-12-31T00:01:25.735Z,2.13
2022-12-31T00:03:52.941Z,2.30
2022-12-31T00:06:30.025Z,2.60
2022-12-31T00:08:59.003Z,2.67
2022-12-31T00:11:27.248Z,2.72
2022-12-31T00:13:54.502Z,2.83
2022-12-31T00:16:30.643Z,2.72
2022-12-31T00:19:01.713Z,2.50
2022-12-31T00:21:30.680Z,3.22
2022-12-31T00:23:57.947Z,2.95
2022-12-31T00:26:27.407Z,3.00
2022-12-31T00:28:55.725Z,3.20
2022-12-31T00:31:25.260Z,3.42
2022-12-31T00:33:52.172Z,3.80
2022-12-31T00:36:24.700Z,3.90
2022-12-31T00:38:53.217Z,4.07
2022-12-31T00:41:21.374Z,4.00
2022-12-31T00:43:48.439Z,3.83
2022-12-31T00:46:16.367Z,5.13
2022-12-31T00:48:43.499Z,4.40
2022-12-31T00:51:13.839Z,4.13
2022-12-31T00:53:41.052Z,4.10
2022-12-31T00:56:11.968Z,3.55
2022-12-31T00:58:39.125Z,3.97
2022-12-31T01:01:14.663Z,4.35
2022-12-31T01:03:41.349Z,4.50
2022-12-31T01:06:08.207Z,3.50
2022-12-31T01:08:35.037Z,3.53
2022-12-31T01:11:31.211Z,2.65
2022-12-31T01:14:00.951Z,1.92
2022-12-31T01:16:38.072Z,2.20
2022-12-31T01:19:07.501Z,1.80
2022-12-31T01:21:35.342Z,1.73
2022-12-31T01:24:02.058Z,1.70
2022-12-31T01:26:29.485Z,1.70
2022-12-31T01:28:56.601Z,2.10
2022-12-31T01:31:24.564Z,1.60
2022-12-31T01:33:52.684Z,1.63
2022-12-31T01:36:26.737Z,1.65
2022-12-31T01:38:55.256Z,1.73
2022-12-31T01:41:24.951Z,1.38
2022-12-31T01:43:54.518Z,1.52
2022-12-31T01:46:35.816Z,1.52
2022-12-31T01:49:08.170Z,1.45
2022-12-31T01:51:35.417Z,1.50
2022-12-31T01:54:06.925Z,1.98
2022-12-31T01:56:36.083Z,1.85
2022-12-31T01:59:06.342Z,1.70
2022-12-31T02:01:33.477Z,1.65
2022-12-31T02:04:11.782Z,1.63
2022-12-31T02:06:43.246Z,1.40
2022-12-31T02:09:11.596Z,1.90
2022-12-31T02:11:38.345Z,1.88
2022-12-31T02:14:26.840Z,2.20
2022-12-31T02:17:12.049Z,2.30
2022-12-31T02:20:01.594Z,1.90
2022-12-31T02:22:43.197Z,2.00
2022-12-31T02:28:12.933Z,1.85
2022-12-31T02:30:42.059Z,1.95
2022-12-31T02:33:16.809Z,1.70
2022-12-31T02:35:55.343Z,1.80
2022-12-31T02:38:31.241Z,2.25
2022-12-31T02:40:58.292Z,1.92
2022-12-31T02:43:25.956Z,2.20
2022-12-31T02:46:25.164Z,1.75
2022-12-31T02:49:12.723Z,1.30
2022-12-31T02:52:21.216Z,1.40
2022-12-31T02:55:02.723Z,1.17
2022-12-31T02:57:40.533Z,1.35
2022-12-31T03:00:30.059Z,1.00
2022-12-31T03:02:57.892Z,1.20
2022-12-31T03:05:29.438Z,1.20
2022-12-31T03:07:56.397Z,1.15
2022-12-31T03:10:23.259Z,1.20
2022-12-31T03:12:51.388Z,1.08
2022-12-31T03:15:28.345Z,1.13
2022-12-31T03:17:54.917Z,1.75
2022-12-31T03:20:43.776Z,1.15
2022-12-31T03:23:13.133Z,1.27
2022-12-31T03:25:40.179Z,1.10
2022-12-31T03:28:11.952Z,1.27
2022-12-31T03:33:07.557Z,0.93
2022-12-31T03:35:36.474Z,1.33
2022-12-31T03:38:03.995Z,1.40
2022-12-31T03:40:32.505Z,1.70
2022-12-31T03:42:59.161Z,1.20
2022-12-31T03:45:26.227Z,1.25
2022-12-31T03:47:52.840Z,1.50
2022-12-31T03:50:20.370Z,1.20
2022-12-31T03:52:47.359Z,1.20
2022-12-31T03:55:14.472Z,1.10
2022-12-31T03:57:41.212Z,1.20
2022-12-31T04:00:12.834Z,1.15
2022-12-31T04:02:40.004Z,1.30
2022-12-31T04:05:07.610Z,1.35
2022-12-31T04:07:34.254Z,1.08
2022-12-31T04:10:00.957Z,1.15
2022-12-31T04:12:27.539Z,1.65
2022-12-31T04:14:54.174Z,1.35
2022-12-31T04:17:20.830Z,1.17
2022-12-31T04:19:47.511Z,0.90
2022-12-31T04:22:14.173Z,1.20
2022-12-31T04:24:42.907Z,0.95
2022-12-31T04:27:10.874Z,1.33
2022-12-31T04:29:37.614Z,1.58
2022-12-31T04:32:05.527Z,1.20
2022-12-31T04:34:33.210Z,1.35
2022-12-31T04:36:59.984Z,1.50
2022-12-31T04:39:26.989Z,1.50
2022-12-31T04:41:54.148Z,1.83
2022-12-31T04:44:20.917Z,2.05
2022-12-31T04:46:47.714Z,1.80
2022-12-31T04:49:14.333Z,2.05
2022-12-31T04:51:41.161Z,2.10
2022-12-31T04:54:07.978Z,2.08
2022-12-31T04:56:36.613Z,2.05
2022-12-31T04:59:05.275Z,2.20
2022-12-31T05:01:32.973Z,1.98
2022-12-31T05:04:00.005Z,2.17
2022-12-31T05:06:26.592Z,2.35
2022-12-31T05:08:53.300Z,2.20
2022-12-31T05:11:19.908Z,2.38
2022-12-31T05:13:46.499Z,1.92
2022-12-31T05:16:13.155Z,2.45
2022-12-31T05:18:39.843Z,2.72
2022-12-31T05:21:06.864Z,3.05
2022-12-31T05:23:33.659Z,3.40
2022-12-31T05:26:00.486Z,2.88
2022-12-31T05:28:27.123Z,3.25
2022-12-31T05:30:53.873Z,3.50
2022-12-31T05:33:21.172Z,3.58
2022-12-31T05:35:47.822Z,3.50
2022-12-31T05:38:14.400Z,3.72
2022-12-31T05:40:41.001Z,4.18
2022-12-31T05:43:07.740Z,4.15
2022-12-31T05:45:34.461Z,3.72
2022-12-31T05:48:01.097Z,3.88
2022-12-31T05:50:27.832Z,3.50
2022-12-31T05:52:54.498Z,3.03
2022-12-31T05:55:21.169Z,3.15
2022-12-31T05:57:47.816Z,3.20
2022-12-31T06:00:14.995Z,3.20
2022-12-31T06:02:41.665Z,2.92
2022-12-31T06:05:08.971Z,2.65
2022-12-31T06:07:35.654Z,2.28
2022-12-31T06:10:02.241Z,2.47
2022-12-31T06:12:28.835Z,2.33
2022-12-31T06:14:55.483Z,2.20
2022-12-31T06:17:22.548Z,2.13
2022-12-31T06:19:49.224Z,2.22
2022-12-31T06:22:16.212Z,2.00
2022-12-31T06:24:42.877Z,2.15
2022-12-31T06:27:09.801Z,1.92
2022-12-31T06:29:36.494Z,2.55
2022-12-31T06:32:03.314Z,2.03
2022-12-31T06:34:29.939Z,3.00
2022-12-31T06:36:56.576Z,3.13
2022-12-31T06:39:23.328Z,3.65
2022-12-31T06:41:49.972Z,4.13
2022-12-31T06:44:16.727Z,4.50
2022-12-31T06:46:43.370Z,4.70
2022-12-31T06:49:10.162Z,4.82
2022-12-31T06:51:36.840Z,5.35
2022-12-31T06:54:03.509Z,5.93
2022-12-31T06:56:34.499Z,5.78
2022-12-31T06:59:02.587Z,5.50
2022-12-31T07:02:10.611Z,5.82
2022-12-31T07:05:02.100Z,5.50
2022-12-31T07:07:43.225Z,3.80
2022-12-31T07:10:31.408Z,3.60
2022-12-31T07:13:25.216Z,2.42
2022-12-31T07:16:07.127Z,2.22
2022-12-31T07:21:13.858Z,1.20
2022-12-31T07:23:42.324Z,1.10
2022-12-31T07:26:47.757Z,1.00
2022-12-31T07:29:50.081Z,0.73
2022-12-31T07:32:42.712Z,0.68
2022-12-31T07:35:12.164Z,0.60
2022-12-31T07:37:51.059Z,0.30
2022-12-31T07:40:38.263Z,0.47
2022-12-31T07:43:11.990Z,0.30
2022-12-31T07:45:38.621Z,0.70
2022-12-31T07:48:21.215Z,0.50
2022-12-31T07:50:48.222Z,0.70
2022-12-31T07:53:15.092Z,0.30
2022-12-31T07:55:41.747Z,0.50
2022-12-31T07:58:30.299Z,0.55
2022-12-31T08:00:57.947Z,0.50
2022-12-31T08:03:55.120Z,0.52
2022-12-31T08:06:32.125Z,0.70
2022-12-31T08:09:16.601Z,1.15
2022-12-31T08:11:58.052Z,0.65
2022-12-31T08:14:25.848Z,0.60
2022-12-31T08:16:53.186Z,0.52
2022-12-31T08:19:31.666Z,0.55
2022-12-31T08:22:04.213Z,0.80
2022-12-31T08:25:14.652Z,0.70
2022-12-31T08:27:44.332Z,0.80
2022-12-31T08:30:13.407Z,0.80
2022-12-31T08:32:49.230Z,0.70
2022-12-31T08:35:45.517Z,1.10
2022-12-31T08:38:34.243Z,0.93
2022-12-31T08:41:06.432Z,0.85
2022-12-31T08:43:55.141Z,0.90
2022-12-31T08:46:32.900Z,1.15
2022-12-31T08:48:59.832Z,0.75
2022-12-31T08:51:27.238Z,1.02
2022-12-31T08:53:55.283Z,1.17
2022-12-31T08:56:27.341Z,1.15
2022-12-31T08:59:13.583Z,1.05
2022-12-31T09:01:58.347Z,0.85
2022-12-31T09:04:27.882Z,1.17
2022-12-31T09:07:01.596Z,1.02
2022-12-31T09:09:46.298Z,0.80
2022-12-31T09:12:12.906Z,1.20
2022-12-31T09:14:50.078Z,0.98
2022-12-31T09:17:34.409Z,1.25
2022-12-31T09:20:01.444Z,1.30
2022-12-31T09:22:28.565Z,1.20
2022-12-31T09:24:55.354Z,1.00
2022-12-31T09:27:28.254Z,1.20
2022-12-31T09:30:08.347Z,0.82
2022-12-31T09:33:00.804Z,1.02
2022-12-31T09:35:53.951Z,0.98
2022-12-31T09:38:43.313Z,1.02
2022-12-31T09:41:30.533Z,1.02
2022-12-31T09:44:15.644Z,1.08
2022-12-31T09:47:01.402Z,1.30
2022-12-31T09:50:06.347Z,1.08
2022-12-31T09:52:58.149Z,1.17
2022-12-31T09:55:30.833Z,1.00
2022-12-31T09:58:24.721Z,1.05
2022-12-31T10:01:22.693Z,1.73
2022-12-31T10:04:08.221Z,0.88
2022-12-31T10:06:34.761Z,0.93
2022-12-31T10:09:10.224Z,0.85
2022-12-31T10:11:56.749Z,0.98
2022-12-31T10:14:47.536Z,0.80
2022-12-31T10:17:52.962Z,0.80
2022-12-31T10:20:47.015Z,0.80
2022-12-31T10:23:54.477Z,1.15
2022-12-31T10:26:27.215Z,1.45
2022-12-31T10:29:14.743Z,1.45
2022-12-31T10:32:29.430Z,1.23
2022-12-31T10:35:16.672Z,1.50
2022-12-31T10:38:13.733Z,1.27
2022-12-31T10:41:24.800Z,1.17
2022-12-31T10:44:10.187Z,1.23
2022-12-31T10:46:55.400Z,1.30
2022-12-31T10:49:37.925Z,1.33
2022-12-31T10:52:41.362Z,1.17
2022-12-31T10:55:27.046Z,1.20
2022-12-31T10:58:28.057Z,1.23
2022-12-31T11:01:21.349Z,1.02
2022-12-31T11:04:34.362Z,1.20
2022-12-31T11:07:22.576Z,1.55
2022-12-31T11:10:26.543Z,1.85
2022-12-31T11:13:11.751Z,1.30
2022-12-31T11:16:00.348Z,1.40
2022-12-31T11:18:49.685Z,1.70
2022-12-31T11:21:22.820Z,1.50
2022-12-31T11:24:24.725Z,2.33
2022-12-31T11:27:13.407Z,1.85
2022-12-31T11:30:19.115Z,1.73
2022-12-31T11:33:08.389Z,1.65
2022-12-31T11:35:50.097Z,1.50
2022-12-31T11:38:36.011Z,2.28
2022-12-31T11:41:27.302Z,1.73
2022-12-31T11:44:13.071Z,1.35
2022-12-31T11:47:25.329Z,1.23
2022-12-31T11:53:00.326Z,2.00
2022-12-31T11:55:42.961Z,1.70
2022-12-31T11:58:20.397Z,1.55
2022-12-31T12:01:16.465Z,1.70
2022-12-31T12:03:44.190Z,1.90
2022-12-31T12:06:16.938Z,1.50
2022-12-31T12:08:45.889Z,2.13
2022-12-31T12:11:27.386Z,2.00
2022-12-31T12:13:53.976Z,2.03
2022-12-31T12:16:22.536Z,1.52
2022-12-31T12:19:04.168Z,1.80
2022-12-31T12:21:31.244Z,1.88
2022-12-31T12:24:00.964Z,1.50
2022-12-31T12:26:39.752Z,1.48
2022-12-31T12:29:18.853Z,1.45
2022-12-31T12:31:56.343Z,1.88
2022-12-31T12:34:35.405Z,1.90
2022-12-31T12:37:03.261Z,1.17
2022-12-31T12:39:34.985Z,1.60
2022-12-31T12:44:33.094Z,1.70
2022-12-31T12:47:02.816Z,1.30
2022-12-31T12:49:36.710Z,1.63
2022-12-31T12:52:28.768Z,2.15
2022-12-31T12:55:36.549Z,1.77
2022-12-31T12:58:19.354Z,3.00
2022-12-31T13:01:26.832Z,2.70
2022-12-31T13:04:34.964Z,1.40
2022-12-31T13:07:26.162Z,1.83
2022-12-31T13:09:55.527Z,1.47
2022-12-31T13:13:22.713Z,1.60
2022-12-31T13:15:49.501Z,1.65
2022-12-31T13:18:18.970Z,1.52
2022-12-31T13:21:29.362Z,2.10
2022-12-31T13:24:32.313Z,2.00
2022-12-31T13:27:12.476Z,1.90
2022-12-31T13:29:41.277Z,1.90
2022-12-31T13:32:10.862Z,1.35
2022-12-31T13:34:42.039Z,1.73
2022-12-31T13:37:36.483Z,1.70
2022-12-31T13:40:32.268Z,2.00
2022-12-31T13:43:05.994Z,2.67
2022-12-31T13:45:39.277Z,2.08
2022-12-31T13:48:17.508Z,2.20
2022-12-31T13:51:24.291Z,2.08
2022-12-31T13:54:15.243Z,1.50
2022-12-31T13:56:45.399Z,1.70
2022-12-31T13:59:27.191Z,1.40
2022-12-31T14:04:58.468Z,1.27
2022-12-31T14:07:45.948Z,1.92
2022-12-31T14:10:20.548Z,2.35
2022-12-31T14:12:55.193Z,1.95
2022-12-31T14:15:33.305Z,1.80
2022-12-31T14:18:18.947Z,1.75
2022-12-31T14:21:00.686Z,2.53
2022-12-31T14:24:01.173Z,1.92
2022-12-31T14:26:36.343Z,2.38
2022-12-31T14:29:05.895Z,2.00
2022-12-31T14:31:53.721Z,1.90
2022-12-31T14:34:54.078Z,1.67
2022-12-31T14:37:46.388Z,2.40
2022-12-31T14:40:25.288Z,2.15
2022-12-31T14:43:18.673Z,1.98
2022-12-31T14:46:04.081Z,2.10
2022-12-31T14:49:15.299Z,2.20
2022-12-31T14:51:42.099Z,1.77
2022-12-31T14:54:34.233Z,2.20
2022-12-31T14:57:24.563Z,2.90
2022-12-31T14:59:55.381Z,3.85
2022-12-31T15:02:31.272Z,4.07
2022-12-31T15:05:10.063Z,3.58
2022-12-31T15:08:17.932Z,2.80
2022-12-31T15:11:02.144Z,2.40
2022-12-31T15:14:06.568Z,2.63
2022-12-31T15:16:58.023Z,2.97
2022-12-31T15:19:49.895Z,2.83
2022-12-31T15:22:34.521Z,2.88
2022-12-31T15:25:01.522Z,2.20
2022-12-31T15:27:35.588Z,4.25
2022-12-31T15:30:07.263Z,3.60
2022-12-31T15:35:21.394Z,2.60
2022-12-31T15:38:16.573Z,2.75
2022-12-31T15:40:52.551Z,2.78
2022-12-31T15:43:25.423Z,2.78
2022-12-31T15:45:54.124Z,2.60
2022-12-31T15:48:43.250Z,2.92
2022-12-31T15:51:21.308Z,2.75
2022-12-31T15:53:53.025Z,3.17
2022-12-31T15:58:55.213Z,4.60
2022-12-31T16:01:24.631Z,4.85
2022-12-31T16:04:04.278Z,3.60
2022-12-31T16:06:33.737Z,3.08
2022-12-31T16:09:00.575Z,3.35
2022-12-31T16:11:30.268Z,2.53
2022-12-31T16:13:59.578Z,3.47
2022-12-31T16:16:31.615Z,3.38
2022-12-31T16:18:59.338Z,3.60
2022-12-31T16:21:34.328Z,3.40
2022-12-31T16:24:06.515Z,3.67
2022-12-31T16:26:46.191Z,3.95
2022-12-31T16:29:18.226Z,3.75
2022-12-31T16:31:46.377Z,3.58
2022-12-31T16:34:16.832Z,3.08
2022-12-31T16:36:54.715Z,3.83
2022-12-31T16:39:34.141Z,3.33
2022-12-31T16:42:14.077Z,3.65
2022-12-31T16:44:41.289Z,3.72
2022-12-31T16:47:10.050Z,3.42
2022-12-31T16:49:39.098Z,3.05
2022-12-31T16:52:17.684Z,3.72
2022-12-31T16:54:47.264Z,2.88
2022-12-31T16:57:23.460Z,3.30
2022-12-31T16:59:55.757Z,3.22
2022-12-31T17:02:30.031Z,4.18
2022-12-31T17:04:56.760Z,3.67
2022-12-31T17:07:30.883Z,4.10
2022-12-31T17:10:06.384Z,3.65
2022-12-31T17:13:00.576Z,3.63
2022-12-31T17:15:29.724Z,4.35
2022-12-31T17:18:01.117Z,3.83
2022-12-31T17:20:30.898Z,3.83
2022-12-31T17:23:05.137Z,4.57
2022-12-31T17:25:34.141Z,3.33
2022-12-31T17:28:07.163Z,3.75
2022-12-31T17:30:34.526Z,3.25
2022-12-31T17:33:03.548Z,3.67
2022-12-31T17:35:35.196Z,3.58
2022-12-31T17:40:54.296Z,3.60
2022-12-31T17:43:23.371Z,4.32
2022-12-31T17:45:54.489Z,3.38
2022-12-31T17:48:24.613Z,3.15
2022-12-31T17:50:59.710Z,4.30
2022-12-31T17:53:26.524Z,4.13
2022-12-31T17:55:56.503Z,3.45
2022-12-31T17:58:43.020Z,5.22
2022-12-31T18:01:10.335Z,4.90
2022-12-31T18:03:37.090Z,4.07
2022-12-31T18:06:05.356Z,4.03
2022-12-31T18:08:32.117Z,3.67
2022-12-31T18:10:58.829Z,3.88
2022-12-31T18:13:27.104Z,4.30
2022-12-31T18:15:54.384Z,3.60
2022-12-31T18:18:26.519Z,3.45
2022-12-31T18:21:05.122Z,3.05
2022-12-31T18:23:40.102Z,4.00
2022-12-31T18:26:06.773Z,3.97
2022-12-31T18:28:33.406Z,3.70
2022-12-31T18:31:00.208Z,3.45
2022-12-31T18:33:27.182Z,3.63
2022-12-31T18:36:10.442Z,3.40
2022-12-31T18:38:37.421Z,4.10
2022-12-31T18:41:04.661Z,4.30
2022-12-31T18:43:31.551Z,3.38
2022-12-31T18:45:58.600Z,4.68
2022-12-31T18:48:25.230Z,4.55
2022-12-31T18:50:51.840Z,4.45
2022-12-31T18:53:21.804Z,5.05
2022-12-31T18:55:54.364Z,4.57
2022-12-31T18:58:21.119Z,4.63
2022-12-31T19:00:48.941Z,4.75
2022-12-31T19:03:27.229Z,4.47
2022-12-31T19:05:54.230Z,4.45
2022-12-31T19:08:22.581Z,2.88
2022-12-31T19:10:51.812Z,3.95
2022-12-31T19:13:20.131Z,3.47
2022-12-31T19:15:49.534Z,3.90
2022-12-31T19:18:16.318Z,3.75
2022-12-31T19:20:43.155Z,4.15
2022-12-31T19:23:16.427Z,3.50
2022-12-31T19:25:43.495Z,4.10
2022-12-31T19:28:30.416Z,4.15
2022-12-31T19:30:57.081Z,3.45
2022-12-31T19:33:23.953Z,4.20
2022-12-31T19:35:50.603Z,3.83
2022-12-31T19:38:23.633Z,3.40
2022-12-31T19:40:52.513Z,3.55
2022-12-31T19:43:21.056Z,3.72
2022-12-31T19:45:48.950Z,5.22
2022-12-31T19:48:28.711Z,3.15
2022-12-31T19:50:59.130Z,7.03
2022-12-31T19:53:27.492Z,9.05
2022-12-31T19:55:54.216Z,4.20
2022-12-31T19:58:25.974Z,5.10
2022-12-31T20:01:02.383Z,6.40
2022-12-31T20:03:31.604Z,5.22
2022-12-31T20:06:09.639Z,4.88
2022-12-31T20:08:37.929Z,5.18
2022-12-31T20:11:13.196Z,3.95
2022-12-31T20:13:41.109Z,3.58
2022-12-31T20:16:13.813Z,3.90
2022-12-31T20:18:42.030Z,4.15
2022-12-31T20:21:15.263Z,4.30
2022-12-31T20:23:41.940Z,3.63
2022-12-31T20:26:09.016Z,3.78
2022-12-31T20:28:36.918Z,3.17
2022-12-31T20:31:12.745Z,3.13
2022-12-31T20:33:39.463Z,3.40
2022-12-31T20:36:08.181Z,4.57
2022-12-31T20:38:34.815Z,4.20
2022-12-31T20:41:05.677Z,3.90
2022-12-31T20:43:34.031Z,4.67
2022-12-31T20:46:10.938Z,8.52
2022-12-31T20:48:41.395Z,6.68
2022-12-31T20:51:08.383Z,4.80
2022-12-31T20:53:34.964Z,5.60
2022-12-31T20:56:05.629Z,3.55
2022-12-31T20:58:32.305Z,22.05
2022-12-31T21:00:59.171Z,6.13
2022-12-31T21:04:03.032Z,5.60
2022-12-31T21:06:13.271Z,9.20
2022-12-31T21:08:40.199Z,5.88
2022-12-31T21:11:27.695Z,3.92
2022-12-31T21:13:55.619Z,4.07
2022-12-31T21:16:22.318Z,4.20
2022-12-31T21:18:49.090Z,3.63
2022-12-31T21:21:15.783Z,4.78
2022-12-31T21:23:42.390Z,4.75
2022-12-31T21:26:09.061Z,4.65
2022-12-31T21:28:36.017Z,10.43
2022-12-31T21:31:07.080Z,5.70
2022-12-31T21:33:34.600Z,5.15
2022-12-31T21:36:04.789Z,4.57
2022-12-31T21:38:31.897Z,4.93
2022-12-31T21:41:03.097Z,5.32
2022-12-31T21:43:30.144Z,4.90
2022-12-31T21:46:05.036Z,4.88
2022-12-31T21:48:31.863Z,4.63
2022-12-31T21:51:12.705Z,5.20
2022-12-31T21:53:40.136Z,4.80
2022-12-31T21:56:11.840Z,3.03
2022-12-31T21:58:41.055Z,4.03
2022-12-31T22:01:29.087Z,3.88
2022-12-31T22:03:55.803Z,6.35
2022-12-31T22:06:24.524Z,4.57
2022-12-31T22:08:55.823Z,5.35
2022-12-31T22:11:25.887Z,3.33
2022-12-31T22:13:53.611Z,7.43
2022-12-31T22:16:21.837Z,8.65
2022-12-31T22:18:48.801Z,9.15
2022-12-31T22:21:21.194Z,5.70
2022-12-31T22:23:49.962Z,8.20
2022-12-31T22:26:19.445Z,4.22
2022-12-31T22:28:46.529Z,6.53
2022-12-31T22:31:18.936Z,4.63
2022-12-31T22:33:46.395Z,4.00
2022-12-31T22:36:16.480Z,3.72
2022-12-31T22:38:43.568Z,4.80
2022-12-31T22:41:15.896Z,4.22
2022-12-31T22:43:45.613Z,3.55
2022-12-31T22:46:18.374Z,4.05
2022-12-31T22:48:45.077Z,3.10
2022-12-31T22:51:13.046Z,3.85
2022-12-31T22:53:41.099Z,4.47
2022-12-31T22:56:09.175Z,4.75
2022-12-31T22:58:36.292Z,4.05
2022-12-31T23:01:22.443Z,4.03
2022-12-31T23:03:51.299Z,5.63
2022-12-31T23:06:18.828Z,5.40
2022-12-31T23:09:05.929Z,35.78
2022-12-31T23:11:34.633Z,14.82
2022-12-31T23:14:19.737Z,9.32
2022-12-31T23:17:29.619Z,36.40
2022-12-31T23:20:10.435Z,19.10
2022-12-31T23:22:55.808Z,12.43
2022-12-31T23:25:22.455Z,17.42
2022-12-31T23:27:49.056Z,12.93
2022-12-31T23:30:15.720Z,11.80
2022-12-31T23:32:42.367Z,17.70
2022-12-31T23:35:09.965Z,15.27
2022-12-31T23:37:37.160Z,14.20
2022-12-31T23:40:04.359Z,12.48
2022-12-31T23:42:31.025Z,13.07
2022-12-31T23:44:57.664Z,15.55
2022-12-31T23:47:24.305Z,12.88
2022-12-31T23:49:50.980Z,12.18
2022-12-31T23:52:17.563Z,12.35
2022-12-31T23:54:44.146Z,14.93
2022-12-31T23:57:10.773Z,18.80
2022-12-31T23:59:37.409Z,13.98
